sensor_id;sensor_type;location;lat;lon;timestamp;pressure;altitude;pressure_sealevel;temperature;humidity
76590;BME280;65471;55.908;37.880;2023-02-03T00:00:46;99084.91;;;-0.37;76.42
76590;BME280;65471;55.908;37.880;2023-02-03T00:03:13;99072.84;;;-0.40;76.36
76590;BME280;65471;55.908;37.880;2023-02-03T00:05:41;99080.47;;;-0.37;75.67
76590;BME280;65471;55.908;37.880;2023-02-03T00:08:08;99081.81;;;-0.41;76.36
76590;BME280;65471;55.908;37.880;2023-02-03T00:10:37;99085.81;;;-0.45;75.87
76590;BME280;65471;55.908;37.880;2023-02-03T00:13:06;99085.50;;;-0.50;76.41
76590;BME280;65471;55.908;37.880;2023-02-03T00:15:34;99077.03;;;-0.45;76.29
76590;BME280;65471;55.908;37.880;2023-02-03T00:18:03;99071.81;;;-0.39;76.13
76590;BME280;65471;55.908;37.880;2023-02-03T00:20:30;99080.09;;;-0.33;76.45
76590;BME280;65471;55.908;37.880;2023-02-03T00:23:04;99076.09;;;-0.29;76.44
76590;BME280;65471;55.908;37.880;2023-02-03T00:25:31;99068.75;;;-0.27;76.03
76590;BME280;65471;55.908;37.880;2023-02-03T00:28:03;99066.09;;;-0.27;75.89
76590;BME280;65471;55.908;37.880;2023-02-03T00:30:33;99071.69;;;-0.22;75.90
76590;BME280;65471;55.908;37.880;2023-02-03T00:33:01;99077.84;;;-0.22;75.86
76590;BME280;65471;55.908;37.880;2023-02-03T00:35:28;99068.56;;;-0.26;75.83
76590;BME280;65471;55.908;37.880;2023-02-03T00:37:56;99069.84;;;-0.22;76.05
76590;BME280;65471;55.908;37.880;2023-02-03T00:40:25;99079.31;;;-0.19;76.17
76590;BME280;65471;55.908;37.880;2023-02-03T00:42:52;99076.66;;;-0.19;75.78
76590;BME280;65471;55.908;37.880;2023-02-03T00:45:20;99079.50;;;-0.21;75.86
76590;BME280;65471;55.908;37.880;2023-02-03T00:47:47;99077.56;;;-0.27;75.80
76590;BME280;65471;55.908;37.880;2023-02-03T00:50:14;99081.09;;;-0.35;76.27
76590;BME280;65471;55.908;37.880;2023-02-03T00:52:41;99081.75;;;-0.32;76.62
76590;BME280;65471;55.908;37.880;2023-02-03T00:55:08;99076.72;;;-0.27;75.89
76590;BME280;65471;55.908;37.880;2023-02-03T00:57:35;99077.91;;;-0.30;75.87
76590;BME280;65471;55.908;37.880;2023-02-03T01:00:02;99075.25;;;-0.30;76.35
76590;BME280;65471;55.908;37.880;2023-02-03T01:02:30;99072.94;;;-0.33;76.47
76590;BME280;65471;55.908;37.880;2023-02-03T01:04:56;99068.47;;;-0.32;76.28
76590;BME280;65471;55.908;37.880;2023-02-03T01:07:23;99070.28;;;-0.33;76.01
76590;BME280;65471;55.908;37.880;2023-02-03T01:09:50;99073.44;;;-0.29;76.39
76590;BME280;65471;55.908;37.880;2023-02-03T01:12:17;99064.47;;;-0.28;76.16
76590;BME280;65471;55.908;37.880;2023-02-03T01:14:43;99069.94;;;-0.30;76.11
76590;BME280;65471;55.908;37.880;2023-02-03T01:17:10;99061.81;;;-0.28;76.49
76590;BME280;65471;55.908;37.880;2023-02-03T01:19:37;99066.00;;;-0.34;75.99
76590;BME280;65471;55.908;37.880;2023-02-03T01:22:04;99067.00;;;-0.35;76.42
76590;BME280;65471;55.908;37.880;2023-02-03T01:24:30;99059.16;;;-0.28;76.49
76590;BME280;65471;55.908;37.880;2023-02-03T01:26:57;99044.09;;;-0.36;76.06
76590;BME280;65471;55.908;37.880;2023-02-03T01:29:24;99065.75;;;-0.24;76.27
76590;BME280;65471;55.908;37.880;2023-02-03T01:31:51;99069.03;;;-0.22;76.23
76590;BME280;65471;55.908;37.880;2023-02-03T01:34:18;99075.00;;;-0.20;76.49
76590;BME280;65471;55.908;37.880;2023-02-03T01:36:45;99067.03;;;-0.20;76.07
76590;BME280;65471;55.908;37.880;2023-02-03T01:39:12;99063.72;;;-0.22;76.01
76590;BME280;65471;55.908;37.880;2023-02-03T01:41:39;99068.69;;;-0.19;75.96
76590;BME280;65471;55.908;37.880;2023-02-03T01:44:38;99055.59;;;-0.21;75.82
76590;BME280;65471;55.908;37.880;2023-02-03T01:49:41;99037.03;;;-0.44;76.60
76590;BME280;65471;55.908;37.880;2023-02-03T01:52:10;99067.13;;;-0.28;76.56
76590;BME280;65471;55.908;37.880;2023-02-03T01:54:40;99058.13;;;-0.27;76.35
76590;BME280;65471;55.908;37.880;2023-02-03T01:57:14;99069.50;;;-0.19;76.35
76590;BME280;65471;55.908;37.880;2023-02-03T01:59:42;99054.28;;;-0.25;76.15
76590;BME280;65471;55.908;37.880;2023-02-03T02:02:10;99059.72;;;-0.18;75.96
76590;BME280;65471;55.908;37.880;2023-02-03T02:07:23;99057.41;;;-0.21;76.38
76590;BME280;65471;55.908;37.880;2023-02-03T02:09:51;99052.09;;;-0.21;75.58
76590;BME280;65471;55.908;37.880;2023-02-03T02:12:18;99055.13;;;-0.24;76.17
76590;BME280;65471;55.908;37.880;2023-02-03T02:14:45;99054.09;;;-0.23;76.61
76590;BME280;65471;55.908;37.880;2023-02-03T02:20:30;99054.53;;;-0.35;76.95
76590;BME280;65471;55.908;37.880;2023-02-03T02:23:16;99049.94;;;-0.41;77.07
76590;BME280;65471;55.908;37.880;2023-02-03T02:26:02;99045.25;;;-0.39;77.32
76590;BME280;65471;55.908;37.880;2023-02-03T02:28:55;99050.56;;;-0.39;76.92
76590;BME280;65471;55.908;37.880;2023-02-03T02:37:37;99040.56;;;-0.28;77.25
76590;BME280;65471;55.908;37.880;2023-02-03T02:40:20;99046.84;;;-0.29;77.11
76590;BME280;65471;55.908;37.880;2023-02-03T02:43:00;99039.06;;;-0.31;77.37
76590;BME280;65471;55.908;37.880;2023-02-03T02:45:48;99017.88;;;-0.39;77.59
76590;BME280;65471;55.908;37.880;2023-02-03T02:48:28;99035.06;;;-0.27;77.41
76590;BME280;65471;55.908;37.880;2023-02-03T02:50:58;99038.72;;;-0.28;77.06
76590;BME280;65471;55.908;37.880;2023-02-03T02:53:37;99032.59;;;-0.28;77.98
76590;BME280;65471;55.908;37.880;2023-02-03T02:56:07;99029.94;;;-0.28;77.33
76590;BME280;65471;55.908;37.880;2023-02-03T02:58:38;99040.56;;;-0.28;77.42
76590;BME280;65471;55.908;37.880;2023-02-03T03:01:07;99026.91;;;-0.25;77.59
76590;BME280;65471;55.908;37.880;2023-02-03T03:03:37;99028.19;;;-0.21;77.47
76590;BME280;65471;55.908;37.880;2023-02-03T03:06:22;99029.19;;;-0.22;77.40
76590;BME280;65471;55.908;37.880;2023-02-03T03:09:00;99022.41;;;-0.25;77.60
76590;BME280;65471;55.908;37.880;2023-02-03T03:11:32;99029.19;;;-0.22;77.50
76590;BME280;65471;55.908;37.880;2023-02-03T03:14:04;99033.22;;;-0.26;77.52
76590;BME280;65471;55.908;37.880;2023-02-03T03:16:36;99029.63;;;-0.33;77.85
76590;BME280;65471;55.908;37.880;2023-02-03T03:19:09;99038.22;;;-0.31;78.33
76590;BME280;65471;55.908;37.880;2023-02-03T03:21:52;99033.59;;;-0.29;78.06
76590;BME280;65471;55.908;37.880;2023-02-03T03:24:25;99033.88;;;-0.24;77.75
76590;BME280;65471;55.908;37.880;2023-02-03T03:27:10;99039.81;;;-0.22;77.55
76590;BME280;65471;55.908;37.880;2023-02-03T03:29:43;99030.19;;;-0.23;77.46
76590;BME280;65471;55.908;37.880;2023-02-03T03:32:14;99028.00;;;-0.20;77.72
76590;BME280;65471;55.908;37.880;2023-02-03T03:34:41;99043.41;;;-0.15;77.52
76590;BME280;65471;55.908;37.880;2023-02-03T03:37:32;99039.09;;;-0.16;78.12
76590;BME280;65471;55.908;37.880;2023-02-03T03:40:06;99046.31;;;-0.25;78.03
76590;BME280;65471;55.908;37.880;2023-02-03T03:42:39;99046.13;;;-0.23;77.99
76590;BME280;65471;55.908;37.880;2023-02-03T03:50:33;99050.09;;;-0.19;78.35
76590;BME280;65471;55.908;37.880;2023-02-03T03:53:03;99036.81;;;-0.19;77.72
76590;BME280;65471;55.908;37.880;2023-02-03T03:55:35;99049.91;;;-0.18;77.82
76590;BME280;65471;55.908;37.880;2023-02-03T03:58:05;99036.06;;;-0.28;78.13
76590;BME280;65471;55.908;37.880;2023-02-03T04:00:35;99043.84;;;-0.26;78.71
76590;BME280;65471;55.908;37.880;2023-02-03T04:03:22;99047.78;;;-0.22;78.23
76590;BME280;65471;55.908;37.880;2023-02-03T04:05:50;99044.03;;;-0.28;78.42
76590;BME280;65471;55.908;37.880;2023-02-03T04:08:16;99049.81;;;-0.24;78.47
76590;BME280;65471;55.908;37.880;2023-02-03T04:10:43;99043.97;;;-0.20;78.48
76590;BME280;65471;55.908;37.880;2023-02-03T04:13:11;99052.38;;;-0.16;78.50
76590;BME280;65471;55.908;37.880;2023-02-03T04:15:38;99046.34;;;-0.10;78.12
76590;BME280;65471;55.908;37.880;2023-02-03T04:18:05;99047.66;;;-0.06;78.19
76590;BME280;65471;55.908;37.880;2023-02-03T04:20:32;99043.59;;;-0.02;78.25
76590;BME280;65471;55.908;37.880;2023-02-03T04:22:59;99041.59;;;0.01;78.12
76590;BME280;65471;55.908;37.880;2023-02-03T04:25:29;99048.91;;;-0.02;77.67
76590;BME280;65471;55.908;37.880;2023-02-03T04:27:56;99049.56;;;0.01;78.21
76590;BME280;65471;55.908;37.880;2023-02-03T04:30:23;99041.13;;;-0.03;78.32
76590;BME280;65471;55.908;37.880;2023-02-03T04:32:49;99046.09;;;0.00;78.10
76590;BME280;65471;55.908;37.880;2023-02-03T04:35:16;99042.34;;;-0.06;77.84
76590;BME280;65471;55.908;37.880;2023-02-03T04:37:44;99051.06;;;0.03;78.22
76590;BME280;65471;55.908;37.880;2023-02-03T04:40:12;99052.50;;;0.06;77.93
76590;BME280;65471;55.908;37.880;2023-02-03T04:42:40;99057.66;;;0.07;77.84
76590;BME280;65471;55.908;37.880;2023-02-03T04:45:10;99051.69;;;0.05;77.53
76590;BME280;65471;55.908;37.880;2023-02-03T04:47:37;99030.41;;;-0.10;77.92
76590;BME280;65471;55.908;37.880;2023-02-03T04:50:05;99053.41;;;-0.02;77.72
76590;BME280;65471;55.908;37.880;2023-02-03T04:52:32;99060.84;;;0.03;78.54
76590;BME280;65471;55.908;37.880;2023-02-03T04:54:58;99055.72;;;0.01;78.06
76590;BME280;65471;55.908;37.880;2023-02-03T04:57:25;99050.03;;;0.04;78.60
76590;BME280;65471;55.908;37.880;2023-02-03T04:59:52;99053.53;;;0.05;78.12
76590;BME280;65471;55.908;37.880;2023-02-03T05:02:18;99054.16;;;0.07;78.45
76590;BME280;65471;55.908;37.880;2023-02-03T05:04:45;99057.47;;;0.09;78.10
76590;BME280;65471;55.908;37.880;2023-02-03T05:07:12;99046.19;;;0.07;78.54
76590;BME280;65471;55.908;37.880;2023-02-03T05:09:39;99059.94;;;0.10;78.17
76590;BME280;65471;55.908;37.880;2023-02-03T05:12:05;99055.16;;;0.06;78.50
76590;BME280;65471;55.908;37.880;2023-02-03T05:14:32;99060.47;;;0.06;78.53
76590;BME280;65471;55.908;37.880;2023-02-03T05:16:59;99053.34;;;0.06;78.61
76590;BME280;65471;55.908;37.880;2023-02-03T05:19:28;99052.78;;;0.11;78.57
76590;BME280;65471;55.908;37.880;2023-02-03T05:21:56;99061.88;;;0.16;78.17
76590;BME280;65471;55.908;37.880;2023-02-03T05:24:23;99056.91;;;0.13;78.04
76590;BME280;65471;55.908;37.880;2023-02-03T05:26:50;99058.47;;;0.08;78.13
76590;BME280;65471;55.908;37.880;2023-02-03T05:29:17;99054.16;;;0.07;78.38
76590;BME280;65471;55.908;37.880;2023-02-03T05:31:43;99046.19;;;0.07;78.45
76590;BME280;65471;55.908;37.880;2023-02-03T05:34:10;99048.47;;;0.10;78.82
76590;BME280;65471;55.908;37.880;2023-02-03T05:36:37;99053.25;;;0.14;79.10
76590;BME280;65471;55.908;37.880;2023-02-03T05:39:04;99048.59;;;0.16;78.68
76590;BME280;65471;55.908;37.880;2023-02-03T05:41:30;99046.41;;;0.20;78.79
76590;BME280;65471;55.908;37.880;2023-02-03T05:44:16;99049.25;;;0.19;78.23
76590;BME280;65471;55.908;37.880;2023-02-03T05:46:43;99049.06;;;0.20;78.25
76590;BME280;65471;55.908;37.880;2023-02-03T05:49:10;99057.84;;;0.21;78.87
76590;BME280;65471;55.908;37.880;2023-02-03T05:51:37;99041.16;;;0.12;78.43
76590;BME280;65471;55.908;37.880;2023-02-03T05:54:05;99060.31;;;0.22;78.75
76590;BME280;65471;55.908;37.880;2023-02-03T05:56:32;99067.19;;;0.16;78.59
76590;BME280;65471;55.908;37.880;2023-02-03T05:58:58;99060.88;;;0.17;78.96
76590;BME280;65471;55.908;37.880;2023-02-03T06:01:25;99060.69;;;0.19;78.77
76590;BME280;65471;55.908;37.880;2023-02-03T06:03:52;99064.81;;;0.22;79.26
76590;BME280;65471;55.908;37.880;2023-02-03T06:06:19;99058.13;;;0.26;78.84
76590;BME280;65471;55.908;37.880;2023-02-03T06:08:46;99054.06;;;0.30;78.55
76590;BME280;65471;55.908;37.880;2023-02-03T06:11:13;99059.25;;;0.31;78.47
76590;BME280;65471;55.908;37.880;2023-02-03T06:13:39;99051.06;;;0.33;78.46
76590;BME280;65471;55.908;37.880;2023-02-03T06:16:12;99059.06;;;0.33;78.89
76590;BME280;65471;55.908;37.880;2023-02-03T06:18:39;99049.59;;;0.30;79.01
76590;BME280;65471;55.908;37.880;2023-02-03T06:21:06;99048.13;;;0.28;78.69
76590;BME280;65471;55.908;37.880;2023-02-03T06:23:32;99036.75;;;0.19;78.90
76590;BME280;65471;55.908;37.880;2023-02-03T06:25:59;99065.81;;;0.21;78.98
76590;BME280;65471;55.908;37.880;2023-02-03T06:28:26;99063.91;;;0.14;79.56
76590;BME280;65471;55.908;37.880;2023-02-03T06:30:53;99065.19;;;0.19;79.14
76590;BME280;65471;55.908;37.880;2023-02-03T06:33:20;99064.28;;;0.26;79.38
76590;BME280;65471;55.908;37.880;2023-02-03T06:35:46;99067.22;;;0.31;79.21
76590;BME280;65471;55.908;37.880;2023-02-03T06:38:13;99068.47;;;0.36;79.25
76590;BME280;65471;55.908;37.880;2023-02-03T06:40:40;99064.81;;;0.37;78.67
76590;BME280;65471;55.908;37.880;2023-02-03T06:43:07;99061.97;;;0.38;79.03
76590;BME280;65471;55.908;37.880;2023-02-03T06:45:33;99063.72;;;0.31;78.71
76590;BME280;65471;55.908;37.880;2023-02-03T06:48:01;99070.22;;;0.28;79.69
76590;BME280;65471;55.908;37.880;2023-02-03T06:50:28;99065.28;;;0.25;79.47
76590;BME280;65471;55.908;37.880;2023-02-03T06:52:55;99064.91;;;0.28;79.99
76590;BME280;65471;55.908;37.880;2023-02-03T06:55:22;99068.03;;;0.32;79.82
76590;BME280;65471;55.908;37.880;2023-02-03T06:57:49;99063.28;;;0.27;79.60
76590;BME280;65471;55.908;37.880;2023-02-03T07:00:18;99074.53;;;0.29;79.92
76590;BME280;65471;55.908;37.880;2023-02-03T07:02:52;99071.31;;;0.34;79.87
76590;BME280;65471;55.908;37.880;2023-02-03T07:05:20;99071.13;;;0.36;79.36
76590;BME280;65471;55.908;37.880;2023-02-03T07:07:47;99079.47;;;0.32;79.64
76590;BME280;65471;55.908;37.880;2023-02-03T07:10:14;99074.34;;;0.31;79.72
76590;BME280;65471;55.908;37.880;2023-02-03T07:12:41;99073.16;;;0.33;80.01
76590;BME280;65471;55.908;37.880;2023-02-03T07:15:10;99072.41;;;0.40;79.50
76590;BME280;65471;55.908;37.880;2023-02-03T07:17:37;99075.25;;;0.38;79.87
76590;BME280;65471;55.908;37.880;2023-02-03T07:20:06;99065.28;;;0.40;79.76
76590;BME280;65471;55.908;37.880;2023-02-03T07:22:33;99077.03;;;0.46;80.11
76590;BME280;65471;55.908;37.880;2023-02-03T07:24:59;99064.72;;;0.45;79.55
76590;BME280;65471;55.908;37.880;2023-02-03T07:27:26;99068.88;;;0.47;79.39
76590;BME280;65471;55.908;37.880;2023-02-03T07:29:55;99043.53;;;0.37;79.72
76590;BME280;65471;55.908;37.880;2023-02-03T07:32:21;99070.34;;;0.50;79.55
76590;BME280;65471;55.908;37.880;2023-02-03T07:34:51;99066.94;;;0.56;79.66
76590;BME280;65471;55.908;37.880;2023-02-03T07:37:18;99070.31;;;0.65;79.85
76590;BME280;65471;55.908;37.880;2023-02-03T07:39:45;99072.22;;;0.71;79.81
76590;BME280;65471;55.908;37.880;2023-02-03T07:42:12;99069.22;;;0.74;79.42
76590;BME280;65471;55.908;37.880;2023-02-03T07:44:39;99062.50;;;0.78;79.33
76590;BME280;65471;55.908;37.880;2023-02-03T07:47:05;99073.13;;;0.78;79.36
76590;BME280;65471;55.908;37.880;2023-02-03T07:49:32;99065.34;;;0.77;79.10
76590;BME280;65471;55.908;37.880;2023-02-03T07:51:59;99060.56;;;0.72;79.63
76590;BME280;65471;55.908;37.880;2023-02-03T07:54:26;99061.59;;;0.71;79.44
76590;BME280;65471;55.908;37.880;2023-02-03T07:56:55;99064.72;;;0.75;79.52
76590;BME280;65471;55.908;37.880;2023-02-03T07:59:22;99058.00;;;0.79;79.19
76590;BME280;65471;55.908;37.880;2023-02-03T08:01:49;99050.03;;;0.79;79.22
76590;BME280;65471;55.908;37.880;2023-02-03T08:04:17;99056.81;;;0.81;79.86
76590;BME280;65471;55.908;37.880;2023-02-03T08:06:43;99056.25;;;0.86;79.50
76590;BME280;65471;55.908;37.880;2023-02-03T08:09:10;99052.84;;;0.92;79.16
76590;BME280;65471;55.908;37.880;2023-02-03T08:11:37;99056.97;;;0.95;79.21
76590;BME280;65471;55.908;37.880;2023-02-03T08:14:04;99055.78;;;0.97;79.03
76590;BME280;65471;55.908;37.880;2023-02-03T08:16:31;99062.75;;;0.98;79.55
76590;BME280;65471;55.908;37.880;2023-02-03T08:18:57;99059.25;;;0.98;78.79
76590;BME280;65471;55.908;37.880;2023-02-03T08:21:24;99055.19;;;1.02;79.49
76590;BME280;65471;55.908;37.880;2023-02-03T08:23:51;99053.53;;;1.01;79.36
76590;BME280;65471;55.908;37.880;2023-02-03T08:26:19;99054.38;;;1.01;79.20
76590;BME280;65471;55.908;37.880;2023-02-03T08:28:49;99045.38;;;1.02;79.69
76590;BME280;65471;55.908;37.880;2023-02-03T08:31:15;99043.78;;;1.08;79.41
76590;BME280;65471;55.908;37.880;2023-02-03T08:33:45;99046.53;;;1.15;79.28
76590;BME280;65471;55.908;37.880;2023-02-03T08:36:14;99055.81;;;1.19;79.72
76590;BME280;65471;55.908;37.880;2023-02-03T08:38:41;99051.75;;;1.23;78.97
76590;BME280;65471;55.908;37.880;2023-02-03T08:41:13;99052.19;;;1.27;78.93
76590;BME280;65471;55.908;37.880;2023-02-03T08:43:40;99047.03;;;1.25;78.92
76590;BME280;65471;55.908;37.880;2023-02-03T08:46:10;99056.31;;;1.29;79.04
76590;BME280;65471;55.908;37.880;2023-02-03T08:48:38;99046.13;;;1.33;78.94
76590;BME280;65471;55.908;37.880;2023-02-03T08:51:13;99050.47;;;1.41;78.85
76590;BME280;65471;55.908;37.880;2023-02-03T08:53:40;99042.94;;;1.44;79.59
76590;BME280;65471;55.908;37.880;2023-02-03T08:56:09;99043.56;;;1.46;79.10
76590;BME280;65471;55.908;37.880;2023-02-03T08:58:38;99040.31;;;1.51;79.53
76590;BME280;65471;55.908;37.880;2023-02-03T09:01:08;99042.19;;;1.50;79.20
76590;BME280;65471;55.908;37.880;2023-02-03T09:03:36;99034.06;;;1.59;78.77
76590;BME280;65471;55.908;37.880;2023-02-03T09:06:04;99034.25;;;1.57;78.73
76590;BME280;65471;55.908;37.880;2023-02-03T09:08:31;99037.72;;;1.58;78.85
76590;BME280;65471;55.908;37.880;2023-02-03T09:10:59;99046.09;;;1.54;78.32
76590;BME280;65471;55.908;37.880;2023-02-03T09:13:26;99044.06;;;1.57;78.42
76590;BME280;65471;55.908;37.880;2023-02-03T09:15:53;99047.13;;;1.53;78.20
76590;BME280;65471;55.908;37.880;2023-02-03T09:18:20;99040.72;;;1.48;78.81
76590;BME280;65471;55.908;37.880;2023-02-03T09:20:46;99035.56;;;1.46;78.41
76590;BME280;65471;55.908;37.880;2023-02-03T09:23:13;99032.34;;;1.51;79.04
76590;BME280;65471;55.908;37.880;2023-02-03T09:25:40;99038.31;;;1.53;78.83
76590;BME280;65471;55.908;37.880;2023-02-03T09:28:11;99036.22;;;1.48;78.54
76590;BME280;65471;55.908;37.880;2023-02-03T09:30:38;99040.97;;;1.53;78.50
76590;BME280;65471;55.908;37.880;2023-02-03T09:33:05;99045.09;;;1.55;78.91
76590;BME280;65471;55.908;37.880;2023-02-03T09:35:34;99036.28;;;1.55;78.60
76590;BME280;65471;55.908;37.880;2023-02-03T09:38:01;99038.13;;;1.54;79.01
76590;BME280;65471;55.908;37.880;2023-02-03T09:40:33;99033.41;;;1.57;79.00
76590;BME280;65471;55.908;37.880;2023-02-03T09:43:12;99027.06;;;1.58;78.29
76590;BME280;65471;55.908;37.880;2023-02-03T09:45:45;99031.97;;;1.54;78.08
76590;BME280;65471;55.908;37.880;2023-02-03T09:48:18;99033.59;;;1.55;79.09
76590;BME280;65471;55.908;37.880;2023-02-03T09:50:47;99035.72;;;1.60;78.18
76590;BME280;65471;55.908;37.880;2023-02-03T09:53:31;99037.13;;;1.55;78.51
76590;BME280;65471;55.908;37.880;2023-02-03T09:56:00;99033.22;;;1.58;78.39
76590;BME280;65471;55.908;37.880;2023-02-03T09:58:32;99042.66;;;1.61;78.73
76590;BME280;65471;55.908;37.880;2023-02-03T10:01:03;99029.13;;;1.55;78.24
76590;BME280;65471;55.908;37.880;2023-02-03T10:03:43;99033.06;;;1.60;78.21
76590;BME280;65471;55.908;37.880;2023-02-03T10:22:05;99016.34;;;1.51;78.90
76590;BME280;65471;55.908;37.880;2023-02-03T10:24:50;99027.72;;;1.60;79.37
76590;BME280;65471;55.908;37.880;2023-02-03T10:27:21;99027.13;;;1.64;78.59
76590;BME280;65471;55.908;37.880;2023-02-03T10:30:23;99032.88;;;1.68;78.65
76590;BME280;65471;55.908;37.880;2023-02-03T10:32:56;99030.50;;;1.73;78.18
76590;BME280;65471;55.908;37.880;2023-02-03T10:35:35;99035.00;;;1.72;78.34
76590;BME280;65471;55.908;37.880;2023-02-03T10:38:05;99024.97;;;1.75;78.56
76590;BME280;65471;55.908;37.880;2023-02-03T10:40:38;99018.22;;;1.79;78.29
76590;BME280;65471;55.908;37.880;2023-02-03T10:43:08;99016.56;;;1.78;78.80
76590;BME280;65471;55.908;37.880;2023-02-03T10:45:53;99007.75;;;1.77;79.02
76590;BME280;65471;55.908;37.880;2023-02-03T10:48:21;99008.19;;;1.81;78.68
76590;BME280;65471;55.908;37.880;2023-02-03T10:50:51;99011.50;;;1.83;78.46
76590;BME280;65471;55.908;37.880;2023-02-03T10:53:34;99012.75;;;1.87;77.84
76590;BME280;65471;55.908;37.880;2023-02-03T10:56:04;99013.38;;;1.89;78.34
76590;BME280;65471;55.908;37.880;2023-02-03T10:58:33;99005.00;;;1.92;78.44
76590;BME280;65471;55.908;37.880;2023-02-03T11:01:10;98991.56;;;1.79;78.18
76590;BME280;65471;55.908;37.880;2023-02-03T11:03:43;99004.97;;;1.85;78.75
76590;BME280;65471;55.908;37.880;2023-02-03T11:06:13;99008.25;;;1.87;78.49
76590;BME280;65471;55.908;37.880;2023-02-03T11:08:46;99008.19;;;1.81;78.18
76590;BME280;65471;55.908;37.880;2023-02-03T11:13:41;99004.97;;;1.85;78.52
76590;BME280;65471;55.908;37.880;2023-02-03T11:16:18;98994.53;;;1.90;78.32
76590;BME280;65471;55.908;37.880;2023-02-03T11:26:43;99000.97;;;1.75;78.42
76590;BME280;65471;55.908;37.880;2023-02-03T11:29:21;99002.84;;;1.81;77.94
76590;BME280;65471;55.908;37.880;2023-02-03T11:31:55;99000.06;;;1.89;78.33
76590;BME280;65471;55.908;37.880;2023-02-03T11:34:31;99001.13;;;1.95;77.98
76590;BME280;65471;55.908;37.880;2023-02-03T11:45:27;98995.78;;;1.95;78.50
76590;BME280;65471;55.908;37.880;2023-02-03T12:00:49;98990.31;;;2.03;77.86
76590;BME280;65471;55.908;37.880;2023-02-03T12:23:32;98983.66;;;2.27;77.46
76590;BME280;65471;55.908;37.880;2023-02-03T12:26:06;98985.69;;;2.25;77.76
76590;BME280;65471;55.908;37.880;2023-02-03T12:31:15;98981.81;;;2.28;77.38
76590;BME280;65471;55.908;37.880;2023-02-03T12:33:49;98980.81;;;2.29;77.09
76590;BME280;65471;55.908;37.880;2023-02-03T12:36:25;98981.00;;;2.27;76.92
76590;BME280;65471;55.908;37.880;2023-02-03T12:41:43;98973.63;;;2.29;77.02
76590;BME280;65471;55.908;37.880;2023-02-03T12:44:24;98967.47;;;2.29;77.50
76590;BME280;65471;55.908;37.880;2023-02-03T12:47:10;98965.63;;;2.29;77.00
76590;BME280;65471;55.908;37.880;2023-02-03T12:49:45;98969.09;;;2.23;77.15
76590;BME280;65471;55.908;37.880;2023-02-03T12:55:36;98958.38;;;2.16;77.24
76590;BME280;65471;55.908;37.880;2023-02-03T12:57:40;98962.69;;;2.17;76.53
76590;BME280;65471;55.908;37.880;2023-02-03T13:08:40;98972.34;;;2.18;77.02
76590;BME280;65471;55.908;37.880;2023-02-03T13:17:02;98972.50;;;2.10;76.38
76590;BME280;65471;55.908;37.880;2023-02-03T13:19:39;98971.84;;;2.08;76.12
76590;BME280;65471;55.908;37.880;2023-02-03T13:22:11;98983.38;;;2.09;76.44
76590;BME280;65471;55.908;37.880;2023-02-03T13:24:44;98973.72;;;2.07;76.00
76590;BME280;65471;55.908;37.880;2023-02-03T13:30:35;98971.69;;;2.10;76.46
76590;BME280;65471;55.908;37.880;2023-02-03T13:38:50;98974.50;;;2.01;75.82
76590;BME280;65471;55.908;37.880;2023-02-03T13:41:45;98975.31;;;2.02;76.49
76590;BME280;65471;55.908;37.880;2023-02-03T13:44:20;98978.81;;;2.02;76.71
76590;BME280;65471;55.908;37.880;2023-02-03T13:46:49;98982.09;;;2.04;76.27
76590;BME280;65471;55.908;37.880;2023-02-03T13:49:28;98974.09;;;2.04;76.43
76590;BME280;65471;55.908;37.880;2023-02-03T13:51:56;98977.78;;;2.03;75.76
76590;BME280;65471;55.908;37.880;2023-02-03T13:54:30;98976.31;;;2.01;75.84
76590;BME280;65471;55.908;37.880;2023-02-03T13:57:17;98977.75;;;1.97;75.91
76590;BME280;65471;55.908;37.880;2023-02-03T13:59:45;98979.78;;;1.95;76.23
76590;BME280;65471;55.908;37.880;2023-02-03T14:04:51;98977.25;;;1.86;76.41
76590;BME280;65471;55.908;37.880;2023-02-03T14:10:22;98972.53;;;1.82;76.72
76590;BME280;65471;55.908;37.880;2023-02-03T14:18:37;98982.19;;;1.83;76.78
76590;BME280;65471;55.908;37.880;2023-02-03T14:21:16;98980.78;;;1.87;76.55
76590;BME280;65471;55.908;37.880;2023-02-03T14:24:04;98988.13;;;1.85;76.79
76590;BME280;65471;55.908;37.880;2023-02-03T14:26:37;98977.59;;;1.77;76.99
76590;BME280;65471;55.908;37.880;2023-02-03T14:29:09;98974.53;;;1.73;77.17
76590;BME280;65471;55.908;37.880;2023-02-03T14:31:53;98985.59;;;1.77;77.66
76590;BME280;65471;55.908;37.880;2023-02-03T14:34:30;98988.25;;;1.77;76.55
76590;BME280;65471;55.908;37.880;2023-02-03T14:37:09;98982.94;;;1.77;77.18
76590;BME280;65471;55.908;37.880;2023-02-03T14:40:18;98977.59;;;1.77;77.25
76590;BME280;65471;55.908;37.880;2023-02-03T14:48:16;98983.13;;;1.75;77.62
76590;BME280;65471;55.908;37.880;2023-02-03T14:59:35;98988.09;;;1.50;77.96
76590;BME280;65471;55.908;37.880;2023-02-03T15:02:10;98984.34;;;1.44;78.13
76590;BME280;65471;55.908;37.880;2023-02-03T15:04:37;98987.25;;;1.49;78.58
76590;BME280;65471;55.908;37.880;2023-02-03T15:07:04;98984.19;;;1.52;78.45
76590;BME280;65471;55.908;37.880;2023-02-03T15:09:37;98976.44;;;1.58;78.44
76590;BME280;65471;55.908;37.880;2023-02-03T15:12:16;98998.22;;;1.61;78.85
76590;BME280;65471;55.908;37.880;2023-02-03T15:14:43;98984.06;;;1.61;78.58
76590;BME280;65471;55.908;37.880;2023-02-03T15:19:49;98975.38;;;1.52;78.78
76590;BME280;65471;55.908;37.880;2023-02-03T15:22:24;98987.09;;;1.58;78.66
76590;BME280;65471;55.908;37.880;2023-02-03T15:24:54;98993.44;;;1.57;78.97
76590;BME280;65471;55.908;37.880;2023-02-03T15:27:24;98993.63;;;1.55;79.35
76590;BME280;65471;55.908;37.880;2023-02-03T15:29:51;98989.16;;;1.55;79.24
76590;BME280;65471;55.908;37.880;2023-02-03T15:34:57;98991.63;;;1.57;79.71
76590;BME280;65471;55.908;37.880;2023-02-03T15:37:32;98990.03;;;1.63;79.29
76590;BME280;65471;55.908;37.880;2023-02-03T15:40:11;98991.22;;;1.60;79.01
76590;BME280;65471;55.908;37.880;2023-02-03T15:43:02;98992.88;;;1.61;79.94
76590;BME280;65471;55.908;37.880;2023-02-03T15:45:38;98988.19;;;1.63;79.52